Darstellungsparameter: Aktuell verwendete Einstellungen:
Skalierung der Graphiken ... ?
xyx+y,   Skalierungsfaktor:      Skalierung: Modus: x, Faktor: 1
Darstellungszeitraum ... ?
Vom - - bis: - -   Zeitraum: 25.04.2020 - 27.11.2020
Min/Max/Avg-Anzeige ... ?
Zeige MMA aktuell
Zeige MMA Monat
Zeige MMA alles
Zeige --A aktuell
Zeige --A Monat
Zeige --A alles
Keine MMA-Anzeige
MMA:
Keine MMA-Graphiken
MMA-Basis: 25.04.2020 - 27.11.2020
Quicknavigation für Darstellung... ?
Tage:      1T, 2T, 3T, 5T -1T -2T -3T -5T +1T +2T +3T +5T
Wochen: 1W, 2W, 3W -1W -2W -3W +1W +2W +3W
Monate: 1M, 3M, 6M -1M -3M -6M +1M +3M +6M
Jahre:    1J, 3J, 5J, 10J -1J -3J -5J -10J +1J +3J +5J +10J
Nutze für die Darstellung ... ?
Originaldaten oder ...
Mittelwerte Minima Maxima auf...
Stundenbasis Tagesbasis Wochenbasis
Monatsbasis Jahresbasis      Datenbasis: Mittelwerte auf Tagesbasis
Darstellen als:
Statistik (Auto) Statistik J:M      Darstellung:

Der gewünschte Datumsbereich war nicht gültig/verfügbar und wurde korrigiert....
Das angegebene Enddatum (24.04.2030 23:59:59) liegt in der Zukunft.


Zur Graphik,    zurück zur Übersicht aller Sensoren.
 
Tabellarische Datenbersicht: ?
 
Sensor: Nr:Datum:Temp:Feuchte:Taupunkt:
Aussen-T/F 1 25-04-2020 00:00:00 12.06389 C 62.5347 % 5.14 C
2 26-04-2020 00:00:00 11.44375 C 66.4514 % 5.42 C
3 27-04-2020 00:00:00 12.89201 C 66.5382 % 6.82 C
4 28-04-2020 00:00:00 12.69306 C 86.7639 % 10.55 C
5 29-04-2020 00:00:00 14.31979 C 76.7049 % 10.29 C
6 30-04-2020 00:00:00 12.21632 C 83.3299 % 9.48 C
7 01-05-2020 00:00:00 10.57674 C 86.4444 % 8.41 C
8 02-05-2020 00:00:00 9.93542 C 83.8403 % 7.33 C
9 03-05-2020 00:00:00 10.39028 C 77.2500 % 6.59 C
10 04-05-2020 00:00:00 11.82361 C 83.7986 % 9.18 C
11 05-05-2020 00:00:00 10.30833 C 68.8333 % 4.84 C
12 06-05-2020 00:00:00 10.34687 C 62.9375 % 3.61 C
13 07-05-2020 00:00:00 12.36771 C 67.0278 % 6.43 C
14 08-05-2020 00:00:00 15.11146 C 64.7535 % 8.53 C
15 09-05-2020 00:00:00 15.97396 C 71.7986 % 10.89 C
16 10-05-2020 00:00:00 15.5441 C 87.0729 % 13.4 C
17 11-05-2020 00:00:00 9.41007 C 72.6944 % 4.76 C
18 12-05-2020 00:00:00 7.67674 C 65.0833 % 1.54 C
19 13-05-2020 00:00:00 8.92604 C 67.5104 % 3.25 C
20 14-05-2020 00:00:00 9.71389 C 66.2535 % 3.73 C
21 15-05-2020 00:00:00 10.43264 C 60.9375 % 3.23 C
22 16-05-2020 00:00:00 11.17396 C 64.1319 % 4.66 C
23 17-05-2020 00:00:00 13.11528 C 63.3750 % 6.33 C
24 18-05-2020 00:00:00 15.67292 C 64.9167 % 9.1 C
25 19-05-2020 00:00:00 16.60729 C 65.8542 % 10.2 C
Sensor: Nr:Datum:Temp:Feuchte:Taupunkt:
Aussen-T/F 26 20-05-2020 00:00:00 17.77917 C 71.9375 % 12.65 C
27 21-05-2020 00:00:00 19.01562 C 69.2535 % 13.26 C
28 22-05-2020 00:00:00 19.97639 C 75.2535 % 15.46 C
29 23-05-2020 00:00:00 13.69236 C 87.6181 % 11.68 C
30 24-05-2020 00:00:00 13.58542 C 74.5799 % 9.16 C
31 25-05-2020 00:00:00 15.93854 C 74.9514 % 11.51 C
32 26-05-2020 00:00:00 14.58437 C 71.8056 % 9.56 C
33 27-05-2020 00:00:00 16.48611 C 64.8958 % 9.87 C
34 28-05-2020 00:00:00 17.49132 C 54.2049 % 8.15 C
35 29-05-2020 00:00:00 15.20764 C 57.9097 % 6.98 C
36 30-05-2020 00:00:00 15.6941 C 55.5278 % 6.83 C
37 31-05-2020 00:00:00 15.11597 C 60.7847 % 7.61 C
38 01-06-2020 00:00:00 17.87257 C 60.3785 % 10.1 C
39 02-06-2020 00:00:00 19.76701 C 57.8264 % 11.23 C
40 03-06-2020 00:00:00 19.96667 C 60.3333 % 12.06 C
41 04-06-2020 00:00:00 14.67257 C 91.4792 % 13.3 C
42 05-06-2020 00:00:00 11.51111 C 85.9722 % 9.25 C
43 06-06-2020 00:00:00 12.4684 C 81.1806 % 9.33 C
44 07-06-2020 00:00:00 13.39861 C 74.3194 % 8.93 C
45 08-06-2020 00:00:00 14.75035 C 72.9375 % 9.95 C
46 09-06-2020 00:00:00 13.99236 C 88.3715 % 12.1 C
47 10-06-2020 00:00:00 15.4 C 85.7326 % 13.02 C
48 11-06-2020 00:00:00 15.74271 C 85.5799 % 13.33 C
49 12-06-2020 00:00:00 19.42083 C 73.5938 % 14.58 C
50 13-06-2020 00:00:00 20.95799 C 70.8958 % 15.48 C
Sensor: Nr:Datum:Temp:Feuchte:Taupunkt:
Aussen-T/F 51 14-06-2020 00:00:00 18.87917 C 80.4340 % 15.44 C
52 15-06-2020 00:00:00 18.60291 C 80.5345 % 15.19 C
53 16-06-2020 00:00:00 18.0434 C 88.9236 % 16.19 C
54 17-06-2020 00:00:00 17.45903 C 89.6771 % 15.75 C
55 18-06-2020 00:00:00 18.51528 C 77.4028 % 14.49 C
56 19-06-2020 00:00:00 16.72674 C 84.4549 % 14.09 C
57 20-06-2020 00:00:00 16.94271 C 84.7535 % 14.36 C
58 21-06-2020 00:00:00 19.05278 C 74.7396 % 14.47 C
59 22-06-2020 00:00:00 18.83785 C 72.4236 % 13.77 C
60 23-06-2020 00:00:00 19.59583 C 68.6840 % 13.69 C
61 24-06-2020 00:00:00 21.22153 C 60.2153 % 13.21 C
62 25-06-2020 00:00:00 21.70278 C 67.7535 % 15.48 C
63 26-06-2020 00:00:00 21.67743 C 70.8264 % 16.15 C
64 27-06-2020 00:00:00 22.68785 C 72.4479 % 17.48 C
65 28-06-2020 00:00:00 19.86979 C 72.4236 % 14.77 C
66 29-06-2020 00:00:00 17.69792 C 71.6701 % 12.52 C
67 30-06-2020 00:00:00 16.88194 C 71.2639 % 11.65 C
68 01-07-2020 00:00:00 21.29896 C 71.3889 % 15.91 C
69 02-07-2020 00:00:00 18.73125 C 81.7639 % 15.55 C
70 03-07-2020 00:00:00 17.73958 C 72.1597 % 12.66 C
71 04-07-2020 00:00:00 19.09826 C 68.4722 % 13.16 C
72 05-07-2020 00:00:00 22.80243 C 71.1076 % 17.29 C
73 06-07-2020 00:00:00 16.79653 C 65.8646 % 10.38 C
74 07-07-2020 00:00:00 16.09792 C 67.7292 % 10.14 C
75 08-07-2020 00:00:00 15.87639 C 86.0139 % 13.54 C
Sensor: Nr:Datum:Temp:Feuchte:Taupunkt:
Aussen-T/F 76 09-07-2020 00:00:00 21.61424 C 74.6667 % 16.92 C
77 10-07-2020 00:00:00 18.63368 C 78.6215 % 14.85 C
78 11-07-2020 00:00:00 16.57431 C 67.3646 % 10.51 C
79 12-07-2020 00:00:00 16.85382 C 66.0139 % 10.47 C
80 13-07-2020 00:00:00 19.08542 C 59.6354 % 11.05 C
81 14-07-2020 00:00:00 18.66215 C 67.1389 % 12.45 C
82 15-07-2020 00:00:00 17.55208 C 72.7569 % 12.61 C
83 16-07-2020 00:00:00 16.0875 C 88.8715 % 14.25 C
84 17-07-2020 00:00:00 18.58611 C 80.2222 % 15.11 C
85 18-07-2020 00:00:00 19.51944 C 74.3264 % 14.83 C
86 19-07-2020 00:00:00 22.30451 C 63.0590 % 14.94 C
87 20-07-2020 00:00:00 19.42708 C 71.6215 % 14.17 C
88 21-07-2020 00:00:00 17.64722 C 62.2118 % 10.34 C
89 22-07-2020 00:00:00 17.13264 C 62.9931 % 10.04 C
90 23-07-2020 00:00:00 18.84618 C 60.0208 % 10.93 C
91 24-07-2020 00:00:00 21.21007 C 59.2118 % 12.94 C
92 25-07-2020 00:00:00 21.01562 C 67.9618 % 14.88 C
93 26-07-2020 00:00:00 20.87674 C 70.5660 % 15.33 C
94 27-07-2020 00:00:00 21.66215 C 63.9306 % 14.54 C
95 28-07-2020 00:00:00 22.91424 C 54.3299 % 13.21 C
96 29-07-2020 00:00:00 18.94583 C 61.6007 % 11.41 C
97 30-07-2020 00:00:00 20.4309 C 59.1424 % 12.19 C
98 31-07-2020 00:00:00 24.16007 C 52.9340 % 13.96 C
99 01-08-2020 00:00:00 21.98437 C 78.4896 % 18.07 C
100 02-08-2020 00:00:00 21.28472 C 73.8993 % 16.44 C
Sensor: Nr:Datum:Temp:Feuchte:Taupunkt:
Aussen-T/F 101 03-08-2020 00:00:00 18.1684 C 72.7361 % 13.2 C
102 04-08-2020 00:00:00 19.15486 C 64.7847 % 12.37 C
103 05-08-2020 00:00:00 19.44549 C 61.2292 % 11.79 C
104 06-08-2020 00:00:00 21.8184 C 59.4549 % 13.57 C
105 07-08-2020 00:00:00 23.97535 C 59.4826 % 15.6 C
106 08-08-2020 00:00:00 26.13125 C 58.1875 % 17.27 C
107 09-08-2020 00:00:00 24.35937 C 66.6146 % 17.74 C
108 10-08-2020 00:00:00 25.68472 C 68.1910 % 19.38 C
109 11-08-2020 00:00:00 25.77396 C 68.1285 % 19.45 C
110 12-08-2020 00:00:00 23.65799 C 82.5382 % 20.51 C
111 13-08-2020 00:00:00 23.34201 C 82.8333 % 20.26 C
112 14-08-2020 00:00:00 23.16285 C 77.1215 % 18.93 C
113 15-08-2020 00:00:00 21.83368 C 84.6111 % 19.12 C
114 16-08-2020 00:00:00 22.52535 C 79.9028 % 18.88 C
115 17-08-2020 00:00:00 21.08056 C 81.9514 % 17.88 C
116 18-08-2020 00:00:00 19.08924 C 82.0139 % 15.95 C
117 19-08-2020 00:00:00 19.13125 C 82.7951 % 16.14 C
118 20-08-2020 00:00:00 23.86042 C 77.6875 % 19.72 C
119 21-08-2020 00:00:00 25.27743 C 71.3264 % 19.71 C
120 22-08-2020 00:00:00 22.45625 C 67.1285 % 16.06 C
121 23-08-2020 00:00:00 19.15764 C 69.8229 % 13.52 C
122 24-08-2020 00:00:00 18.23437 C 71.3472 % 12.97 C
123 25-08-2020 00:00:00 19.07917 C 71.9306 % 13.9 C
124 26-08-2020 00:00:00 20.74132 C 58.6875 % 12.36 C
125 27-08-2020 00:00:00 18.39271 C 69.0382 % 12.62 C
Sensor: Nr:Datum:Temp:Feuchte:Taupunkt:
Aussen-T/F 126 28-08-2020 00:00:00 17.86667 C 78.0104 % 13.98 C
127 29-08-2020 00:00:00 16.24479 C 77.3403 % 12.28 C
128 30-08-2020 00:00:00 15.77153 C 80.3125 % 12.39 C
129 31-08-2020 00:00:00 15.63437 C 88.7847 % 13.79 C
130 01-09-2020 00:00:00 15.08889 C 88.1806 % 13.15 C
131 02-09-2020 00:00:00 15.65833 C 79.2083 % 12.07 C
132 03-09-2020 00:00:00 14.23542 C 87.9375 % 12.27 C
133 04-09-2020 00:00:00 20.30278 C 80.3993 % 16.82 C
134 05-09-2020 00:00:00 16.89688 C 78.7049 % 13.18 C
135 06-09-2020 00:00:00 13.28021 C 77.0208 % 9.34 C
136 07-09-2020 00:00:00 14.01493 C 75.7222 % 9.8 C
137 08-09-2020 00:00:00 16.29826 C 73.6458 % 11.59 C
138 09-09-2020 00:00:00 18.26667 C 81.2639 % 15 C
139 10-09-2020 00:00:00 17.81319 C 73.1389 % 12.94 C
140 11-09-2020 00:00:00 15.1066 C 75.7639 % 10.86 C
141 12-09-2020 00:00:00 17.20625 C 75.7535 % 12.89 C
142 13-09-2020 00:00:00 17.20486 C 74.9549 % 12.73 C
143 14-09-2020 00:00:00 18.81806 C 73.5069 % 13.98 C
144 15-09-2020 00:00:00 20.38194 C 70.7118 % 14.89 C
145 16-09-2020 00:00:00 20.67049 C 74.0139 % 15.87 C
146 17-09-2020 00:00:00 17.93958 C 64.1181 % 11.06 C
147 18-09-2020 00:00:00 15.74687 C 65.9757 % 9.41 C
148 19-09-2020 00:00:00 15.73333 C 62.4097 % 8.58 C
149 20-09-2020 00:00:00 14.83056 C 69.2257 % 9.25 C
150 21-09-2020 00:00:00 14.75174 C 69.8542 % 9.31 C
Sensor: Nr:Datum:Temp:Feuchte:Taupunkt:
Aussen-T/F 151 22-09-2020 00:00:00 16.10521 C 69.6840 % 10.57 C
152 23-09-2020 00:00:00 17.57639 C 68.9479 % 11.82 C
153 24-09-2020 00:00:00 16.23021 C 76.9653 % 12.19 C
154 25-09-2020 00:00:00 12.16979 C 82.8542 % 9.35 C
155 26-09-2020 00:00:00 10.52674 C 88.2188 % 8.66 C
156 27-09-2020 00:00:00 11.00694 C 91.8576 % 9.74 C
157 28-09-2020 00:00:00 11.72882 C 87.0243 % 9.64 C
158 29-09-2020 00:00:00 12.13333 C 94.1250 % 11.22 C
159 30-09-2020 00:00:00 14.10799 C 92.7813 % 12.96 C
160 01-10-2020 00:00:00 12.57465 C 93.1042 % 11.49 C
161 02-10-2020 00:00:00 13.41493 C 88.6597 % 11.58 C
162 03-10-2020 00:00:00 13.37049 C 88.4410 % 11.5 C
163 04-10-2020 00:00:00 11.79861 C 86.3889 % 9.6 C
164 05-10-2020 00:00:00 11.07257 C 91.3021 % 9.71 C
165 06-10-2020 00:00:00 13.11389 C 88.5590 % 11.27 C
166 07-10-2020 00:00:00 13.19444 C 82.1181 % 10.21 C
167 08-10-2020 00:00:00 13.25243 C 88.7188 % 11.43 C
168 09-10-2020 00:00:00 12.99063 C 94.7847 % 12.17 C
169 10-10-2020 00:00:00 9.91979 C 86.5556 % 7.79 C
170 11-10-2020 00:00:00 10.06944 C 83.8299 % 7.46 C
171 12-10-2020 00:00:00 9.40799 C 91.4722 % 8.09 C
172 13-10-2020 00:00:00 7.37361 C 92.5382 % 6.25 C
173 14-10-2020 00:00:00 7.7559 C 89.7222 % 6.18 C
174 15-10-2020 00:00:00 9.09444 C 92.2639 % 7.91 C
175 16-10-2020 00:00:00 9.26007 C 92.3021 % 8.08 C
Sensor: Nr:Datum:Temp:Feuchte:Taupunkt:
Aussen-T/F 176 17-10-2020 00:00:00 6.19618 C 93.4236 % 5.22 C
177 18-10-2020 00:00:00 8.18958 C 90.5556 % 6.74 C
178 19-10-2020 00:00:00 8.62604 C 91.6528 % 7.35 C
179 20-10-2020 00:00:00 8.95714 C 93.6516 % 7.99 C
180 21-10-2020 00:00:00 15.08611 C 82.2326 % 12.08 C
181 22-10-2020 00:00:00 16.18681 C 86.0660 % 13.86 C
182 23-10-2020 00:00:00 15.0691 C 92.6979 % 13.9 C
183 24-10-2020 00:00:00 13.40799 C 87.0243 % 11.29 C
184 25-10-2020 00:00:00 13.16458 C 86.2917 % 10.93 C
185 26-10-2020 00:00:00 10.20313 C 88.5799 % 8.4 C
186 27-10-2020 00:00:00 10.44514 C 83.0590 % 7.7 C
187 28-10-2020 00:00:00 12.59861 C 83.4792 % 9.88 C
188 29-10-2020 00:00:00 10.65347 C 91.8785 % 9.39 C
189 30-10-2020 00:00:00 13.81667 C 90.6146 % 12.31 C
190 31-10-2020 00:00:00 13.1434 C 87.1944 % 11.06 C
191 01-11-2020 00:00:00 15.18715 C 91.6944 % 13.85 C
192 02-11-2020 00:00:00 18.53125 C 80.7361 % 15.16 C
193 03-11-2020 00:00:00 10.3559 C 85.7188 % 8.07 C
194 04-11-2020 00:00:00 4.54444 C 95.1944 % 3.84 C
195 05-11-2020 00:00:00 3.1178 C 96.7966 % 2.66 C
196 06-11-2020 00:00:00 3.23681 C 97.3160 % 2.85 C
197 07-11-2020 00:00:00 4.20285 C 95.8577 % 3.6 C
198 08-11-2020 00:00:00 7.08472 C 94.8160 % 6.31 C
199 09-11-2020 00:00:00 9.85972 C 95.9306 % 9.24 C
200 10-11-2020 00:00:00 7.08333 C 97.0729 % 6.65 C
Sensor: Nr:Datum:Temp:Feuchte:Taupunkt:
Aussen-T/F 201 11-11-2020 00:00:00 9.01875 C 94.5069 % 8.19 C
202 12-11-2020 00:00:00 9.26458 C 90.3681 % 7.77 C
203 13-11-2020 00:00:00 6.6191 C 95.8160 % 6 C
204 14-11-2020 00:00:00 10.4625 C 92.9861 % 9.38 C
205 15-11-2020 00:00:00 13.18819 C 86.4896 % 10.99 C
206 16-11-2020 00:00:00 10.81736 C 86.1146 % 8.59 C
207 17-11-2020 00:00:00 11.47778 C 84.8889 % 9.03 C
208 18-11-2020 00:00:00 9.90625 C 89.6111 % 8.28 C
209 19-11-2020 00:00:00 8.99688 C 88.4826 % 7.2 C
210 20-11-2020 00:00:00 4.04167 C 92.6076 % 2.96 C
211 21-11-2020 00:00:00 3.39688 C 89.5938 % 1.85 C
212 22-11-2020 00:00:00 7.66701 C 84.5625 % 5.24 C
213 23-11-2020 00:00:00 7.74201 C 90.7951 % 6.34 C
214 24-11-2020 00:00:00 6.32917 C 91.8472 % 5.1 C
215 25-11-2020 00:00:00 4.53125 C 93.4340 % 3.57 C
216 26-11-2020 00:00:00 3.39653 C 94.7465 % 2.64 C
217 27-11-2020 00:00:00 3.21033 C 94.3696 % 2.4 C

Maximal/Minimal-Werte vom 25.04.2020 - 27.11.2020

Sensor Min Max Avg
Temp
(Aussen-T/F)
0.1 °C
21-11-2020  04:00:00
38.2 °C
08-08-2020  17:10:00
15.33 °C
Feuchte
(Aussen-T/F)
21 %
31-07-2020  17:15:00
98 %
20-06-2020  08:20:00
77.5 %
Taupunkt
(Aussen-T/F)
1.54 C
12-05-2020  00:00:00
20.51 C
12-08-2020  00:00:00
11.16 C

Die Daten stammen von einer Davis Vantage Pro 2 Wetter-Station und werden unter Linux mit der Software wview2wettercgi und aufbereitet. Alle Angaben erfolgen ohne Gewähr für ihre Vollständigkeit oder Richtigkeit.
Kontakt: Rainer Krienke krienke@uni-koblenz.de . Meine Webseiten an der Uni Koblenz oder privat.
Version: $Revision: 0.78 $